createdAt,value
2018-12-24T00:00:08.511Z,54.70
2018-12-24T00:02:38.744Z,54.60
2018-12-24T00:05:08.528Z,54.70
2018-12-24T00:07:38.325Z,54.50
2018-12-24T00:10:08.217Z,54.50
2018-12-24T00:12:38.101Z,54.60
2018-12-24T00:15:07.985Z,54.70
2018-12-24T00:17:37.787Z,54.70
2018-12-24T00:20:07.676Z,54.60
2018-12-24T00:22:37.496Z,54.60
2018-12-24T00:25:07.359Z,54.80
2018-12-24T00:27:37.168Z,54.60
2018-12-24T00:30:06.967Z,54.50
2018-12-24T00:32:36.853Z,54.40
2018-12-24T00:35:06.656Z,54.40
2018-12-24T00:37:36.511Z,54.50
2018-12-24T00:40:06.485Z,54.50
2018-12-24T00:42:36.356Z,54.50
2018-12-24T00:45:06.292Z,54.50
2018-12-24T00:47:36.138Z,54.50
2018-12-24T00:50:06.035Z,54.20
2018-12-24T00:52:35.924Z,54.40
2018-12-24T00:55:05.726Z,55.10
2018-12-24T00:57:35.544Z,56.40
2018-12-24T01:00:05.777Z,55.30
2018-12-24T01:02:35.656Z,54.50
2018-12-24T01:05:05.575Z,54.30
2018-12-24T01:07:35.780Z,54.30
2018-12-24T01:10:06.101Z,54.10
2018-12-24T01:12:36.007Z,54.10
2018-12-24T01:15:05.940Z,54.10
2018-12-24T01:17:35.832Z,54.20
2018-12-24T01:20:05.841Z,54.10
2018-12-24T01:22:35.752Z,54.60
2018-12-24T01:25:05.768Z,54.10
2018-12-24T01:27:35.641Z,54.00
2018-12-24T01:30:05.935Z,54.50
2018-12-24T01:32:35.840Z,53.90
2018-12-24T01:35:05.762Z,53.90
2018-12-24T01:37:35.637Z,53.80
2018-12-24T01:40:05.780Z,53.70
2018-12-24T01:42:35.600Z,53.70
2018-12-24T01:45:05.569Z,53.80
2018-12-24T01:47:35.484Z,53.70
2018-12-24T01:50:05.320Z,53.70
2018-12-24T01:52:35.132Z,53.80
2018-12-24T01:55:04.972Z,53.80
2018-12-24T01:57:34.780Z,53.80
2018-12-24T02:00:04.764Z,53.60
2018-12-24T02:02:34.666Z,53.50
2018-12-24T02:05:04.673Z,53.90
2018-12-24T02:07:34.560Z,53.60
2018-12-24T02:10:04.359Z,53.70
2018-12-24T02:12:42.071Z,53.70
2018-12-24T02:15:05.686Z,53.70
2018-12-24T02:17:35.555Z,53.70
2018-12-24T02:20:05.588Z,53.70
2018-12-24T02:22:35.401Z,53.70
2018-12-24T02:25:05.240Z,53.80
2018-12-24T02:27:35.036Z,53.70
2018-12-24T02:30:04.859Z,53.80
2018-12-24T02:32:34.661Z,53.90
2018-12-24T02:35:04.568Z,53.70
2018-12-24T02:37:34.376Z,53.70
2018-12-24T02:40:04.198Z,53.70
2018-12-24T02:42:34.125Z,53.70
2018-12-24T02:45:04.016Z,53.40
2018-12-24T02:47:33.896Z,53.60
2018-12-24T02:50:03.780Z,53.40
2018-12-24T02:55:43.559Z,53.50
2018-12-24T02:58:24.104Z,53.40
2018-12-24T03:01:04.633Z,53.40
2018-12-24T03:03:44.094Z,53.30
2018-12-24T03:06:24.925Z,53.30
2018-12-24T03:09:06.168Z,53.60
2018-12-24T03:11:47.363Z,53.30
2018-12-24T03:14:28.705Z,53.30
2018-12-24T03:17:10.186Z,53.30
2018-12-24T03:22:49.731Z,52.60
2018-12-24T03:25:30.979Z,53.20
2018-12-24T03:28:12.244Z,53.00
2018-12-24T03:30:53.545Z,53.00
2018-12-24T03:33:35.144Z,53.00
2018-12-24T03:39:14.663Z,53.20
2018-12-24T03:41:44.107Z,53.10
2018-12-24T03:44:32.515Z,53.10
2018-12-24T03:47:13.529Z,53.20
2018-12-24T03:49:42.981Z,53.10
2018-12-24T03:52:12.339Z,53.00
2018-12-24T03:54:41.713Z,53.20
2018-12-24T03:57:11.086Z,53.10
2018-12-24T03:59:40.724Z,52.90
2018-12-24T04:02:10.095Z,53.10
2018-12-24T04:04:39.488Z,53.00
2018-12-24T04:07:08.844Z,53.00
2018-12-24T04:09:38.288Z,53.00
2018-12-24T04:12:06.919Z,53.10
2018-12-24T04:14:36.343Z,53.10
2018-12-24T04:17:05.709Z,53.10
2018-12-24T04:19:35.076Z,53.10
2018-12-24T04:22:04.431Z,53.10
2018-12-24T04:24:33.789Z,53.00
2018-12-24T04:27:03.236Z,53.00
2018-12-24T04:29:32.666Z,53.00
2018-12-24T04:32:02.137Z,53.00
2018-12-24T04:34:31.500Z,53.00
2018-12-24T04:37:00.976Z,53.20
2018-12-24T04:39:30.363Z,53.10
2018-12-24T04:41:59.808Z,53.00
2018-12-24T04:44:29.361Z,53.00
2018-12-24T04:46:58.725Z,53.10
2018-12-24T04:49:28.154Z,53.00
2018-12-24T04:51:57.580Z,53.20
2018-12-24T04:54:26.940Z,53.00
2018-12-24T04:56:56.281Z,53.00
2018-12-24T04:59:25.848Z,52.90
2018-12-24T05:01:56.717Z,52.80
2018-12-24T05:04:26.149Z,52.80
2018-12-24T05:06:55.528Z,52.70
2018-12-24T05:09:24.920Z,52.80
2018-12-24T05:11:54.344Z,53.00
2018-12-24T05:14:23.729Z,53.10
2018-12-24T05:16:53.104Z,53.20
2018-12-24T05:19:22.476Z,53.00
2018-12-24T05:21:51.932Z,53.00
2018-12-24T05:24:21.516Z,53.20
2018-12-24T05:26:51.649Z,53.20
2018-12-24T05:29:21.080Z,53.30
2018-12-24T05:31:50.440Z,53.20
2018-12-24T05:34:19.821Z,53.10
2018-12-24T05:36:49.244Z,53.00
2018-12-24T05:39:18.676Z,53.10
2018-12-24T05:41:48.084Z,53.00
2018-12-24T05:44:17.456Z,53.00
2018-12-24T05:46:46.833Z,53.00
2018-12-24T05:49:16.291Z,53.10
2018-12-24T05:51:45.987Z,54.40
2018-12-24T05:54:15.345Z,53.90
2018-12-24T05:56:44.839Z,53.90
2018-12-24T05:59:14.206Z,54.50
2018-12-24T06:01:43.999Z,53.40
2018-12-24T06:04:13.391Z,53.10
2018-12-24T06:06:42.768Z,52.90
2018-12-24T06:09:12.132Z,52.90
2018-12-24T06:11:41.540Z,52.80
2018-12-24T06:14:10.973Z,53.40
2018-12-24T06:16:40.400Z,52.80
2018-12-24T06:19:09.763Z,52.90
2018-12-24T06:21:39.152Z,52.80
2018-12-24T06:24:08.508Z,53.50
2018-12-24T06:26:38.005Z,53.90
2018-12-24T06:29:07.444Z,52.70
2018-12-24T06:31:36.812Z,52.50
2018-12-24T06:34:06.261Z,52.30
2018-12-24T06:36:35.712Z,52.30
2018-12-24T06:39:07.487Z,52.40
2018-12-24T06:41:36.897Z,52.40
2018-12-24T06:44:06.811Z,52.50
2018-12-24T06:46:36.551Z,52.50
2018-12-24T06:49:05.956Z,52.20
2018-12-24T06:51:35.380Z,52.60
2018-12-24T06:54:04.827Z,52.80
2018-12-24T06:56:34.267Z,52.80
2018-12-24T06:59:05.350Z,53.20
2018-12-24T07:01:34.719Z,53.00
2018-12-24T07:04:04.164Z,52.90
2018-12-24T07:06:33.560Z,53.00
2018-12-24T07:09:03.307Z,53.00
2018-12-24T07:11:32.687Z,52.90
2018-12-24T07:14:02.054Z,52.90
2018-12-24T07:16:31.429Z,52.90
2018-12-24T07:19:00.865Z,52.90
2018-12-24T07:21:30.240Z,52.80
2018-12-24T07:23:59.599Z,52.90
2018-12-24T07:26:29.040Z,52.90
2018-12-24T07:28:59.182Z,53.00
2018-12-24T07:31:28.843Z,52.80
2018-12-24T07:33:58.200Z,52.90
2018-12-24T07:36:27.572Z,52.80
2018-12-24T07:38:57.016Z,52.80
2018-12-24T07:41:26.452Z,52.70
2018-12-24T07:43:55.877Z,52.80
2018-12-24T07:46:25.244Z,52.60
2018-12-24T07:48:54.609Z,52.60
2018-12-24T07:51:24.112Z,52.70
2018-12-24T07:53:53.535Z,52.70
2018-12-24T07:56:22.912Z,52.70
2018-12-24T07:58:52.285Z,52.70
2018-12-24T08:01:21.640Z,52.80
2018-12-24T08:03:51.011Z,52.60
2018-12-24T08:06:20.421Z,52.50
2018-12-24T08:08:50.084Z,52.60
2018-12-24T08:11:19.471Z,52.70
2018-12-24T08:13:48.888Z,53.00
2018-12-24T08:16:18.340Z,52.90
2018-12-24T08:18:47.775Z,52.90
2018-12-24T08:21:17.425Z,52.90
2018-12-24T08:23:46.791Z,53.20
2018-12-24T08:26:16.201Z,53.00
2018-12-24T08:28:45.595Z,53.00
2018-12-24T08:31:14.959Z,53.10
2018-12-24T08:33:44.332Z,53.30
2018-12-24T08:36:13.728Z,53.60
2018-12-24T08:38:43.121Z,53.70
2018-12-24T08:41:12.520Z,54.30
2018-12-24T08:43:41.909Z,53.60
2018-12-24T08:46:11.283Z,53.40
2018-12-24T08:48:40.707Z,53.50
2018-12-24T08:51:10.140Z,54.30
2018-12-24T08:53:39.580Z,54.10
2018-12-24T08:56:08.973Z,54.50
2018-12-24T08:58:38.384Z,53.90
2018-12-24T09:01:07.781Z,53.60
2018-12-24T09:03:37.231Z,53.70
2018-12-24T09:06:06.697Z,53.90
2018-12-24T09:08:36.096Z,53.80
2018-12-24T09:11:05.544Z,53.80
2018-12-24T09:13:53.943Z,53.70
2018-12-24T09:16:42.343Z,53.70
2018-12-24T09:19:23.199Z,53.50
2018-12-24T09:22:04.544Z,53.50
2018-12-24T09:24:45.896Z,53.50
2018-12-24T09:27:26.896Z,53.50
2018-12-24T09:30:07.905Z,53.50
2018-12-24T09:32:37.355Z,53.60
2018-12-24T09:35:06.720Z,53.40
2018-12-24T09:37:36.167Z,53.30
2018-12-24T09:40:06.305Z,53.10
2018-12-24T09:42:35.728Z,53.00
2018-12-24T09:45:05.132Z,53.00
2018-12-24T09:47:34.512Z,52.60
2018-12-24T09:50:03.947Z,52.50
2018-12-24T09:52:33.324Z,52.60
2018-12-24T09:55:02.704Z,52.70
2018-12-24T09:57:32.085Z,52.80
2018-12-24T10:00:01.548Z,53.00
2018-12-24T10:02:37.194Z,52.80
2018-12-24T10:05:06.993Z,52.80
2018-12-24T10:07:40.522Z,52.70
2018-12-24T10:10:15.631Z,52.60
2018-12-24T10:12:45.120Z,52.80
2018-12-24T10:15:16.120Z,52.70
2018-12-24T10:17:45.896Z,52.80
2018-12-24T10:20:15.372Z,52.60
2018-12-24T10:22:44.864Z,52.50
2018-12-24T10:25:14.362Z,52.20
2018-12-24T10:27:43.825Z,52.10
2018-12-24T10:30:13.283Z,52.10
2018-12-24T10:32:42.692Z,52.10
2018-12-24T10:35:12.064Z,52.00
2018-12-24T10:37:41.532Z,52.90
2018-12-24T10:40:14.176Z,53.10
2018-12-24T10:42:43.600Z,53.00
2018-12-24T10:45:16.486Z,52.80
2018-12-24T10:47:44.118Z,52.60
2018-12-24T10:50:13.548Z,52.90
2018-12-24T10:52:42.913Z,53.20
2018-12-24T10:55:12.363Z,52.80
2018-12-24T10:57:41.732Z,53.00
2018-12-24T11:00:11.892Z,53.10
2018-12-24T11:02:41.255Z,52.90
2018-12-24T11:05:10.645Z,53.00
2018-12-24T11:07:40.418Z,52.80
2018-12-24T11:10:11.940Z,52.80
2018-12-24T11:12:41.469Z,52.70
2018-12-24T11:15:12.696Z,52.60
2018-12-24T11:17:42.097Z,52.70
2018-12-24T11:20:11.532Z,52.50
2018-12-24T11:22:40.908Z,52.40
2018-12-24T11:25:10.255Z,52.50
2018-12-24T11:27:39.737Z,52.50
2018-12-24T11:30:09.256Z,52.30
2018-12-24T11:32:38.619Z,52.20
2018-12-24T11:35:07.987Z,52.50
2018-12-24T11:37:37.359Z,52.50
2018-12-24T11:40:06.873Z,52.60
2018-12-24T11:42:36.250Z,52.40
2018-12-24T11:45:06.100Z,52.60
2018-12-24T11:47:35.531Z,52.10
2018-12-24T11:50:04.927Z,51.90
2018-12-24T11:52:34.290Z,51.60
2018-12-24T11:55:03.732Z,51.70
2018-12-24T11:57:33.111Z,51.50
2018-12-24T12:00:02.481Z,51.70
2018-12-24T12:02:31.924Z,51.40
2018-12-24T12:05:01.301Z,52.00
2018-12-24T12:07:30.676Z,51.50
2018-12-24T12:10:00.047Z,51.30
2018-12-24T12:12:29.457Z,51.40
2018-12-24T12:14:58.898Z,51.50
2018-12-24T12:17:28.316Z,51.30
2018-12-24T12:19:57.772Z,51.50
2018-12-24T12:22:27.144Z,51.60
2018-12-24T12:24:56.592Z,51.50
2018-12-24T12:27:26.036Z,51.50
2018-12-24T12:29:55.424Z,51.60
2018-12-24T12:32:24.856Z,51.90
2018-12-24T12:34:54.260Z,52.60
2018-12-24T12:37:23.641Z,52.00
2018-12-24T12:39:53.072Z,52.50
2018-12-24T12:42:22.432Z,52.40
2018-12-24T12:44:51.787Z,52.40
2018-12-24T12:47:21.198Z,53.00
2018-12-24T12:49:50.554Z,52.70
2018-12-24T12:52:19.936Z,53.20
2018-12-24T12:54:49.315Z,53.10
2018-12-24T12:57:18.756Z,53.60
2018-12-24T12:59:48.128Z,53.90
2018-12-24T13:02:18.939Z,53.70
2018-12-24T13:04:48.580Z,53.90
2018-12-24T13:07:17.969Z,53.70
2018-12-24T13:09:47.416Z,54.30
2018-12-24T13:12:16.783Z,55.10
2018-12-24T13:14:46.152Z,55.10
2018-12-24T13:17:15.531Z,55.50
2018-12-24T13:19:44.991Z,55.80
2018-12-24T13:22:14.435Z,55.10
2018-12-24T13:24:43.823Z,55.10
2018-12-24T13:27:13.190Z,55.00
2018-12-24T13:29:42.648Z,55.30
2018-12-24T13:32:12.012Z,55.10
2018-12-24T13:34:41.392Z,55.20
2018-12-24T13:37:10.966Z,55.20
2018-12-24T13:39:40.358Z,55.10
2018-12-24T13:42:09.796Z,55.20
2018-12-24T13:44:39.168Z,55.20
2018-12-24T13:47:08.553Z,55.30
2018-12-24T13:49:37.944Z,55.40
2018-12-24T13:52:07.323Z,55.50
2018-12-24T13:54:36.712Z,55.30
2018-12-24T13:57:06.151Z,55.20
2018-12-24T13:59:35.518Z,55.10
2018-12-24T14:02:04.976Z,54.90
2018-12-24T14:04:34.332Z,54.70
2018-12-24T14:07:03.688Z,54.70
2018-12-24T14:09:33.075Z,54.50
2018-12-24T14:12:02.451Z,54.50
2018-12-24T14:14:31.801Z,54.50
2018-12-24T14:17:01.228Z,54.50
2018-12-24T14:19:30.687Z,54.20
2018-12-24T14:22:00.056Z,54.10
2018-12-24T14:24:29.439Z,54.00
2018-12-24T14:26:58.808Z,54.50
2018-12-24T14:29:28.192Z,53.90
2018-12-24T14:31:57.552Z,53.80
2018-12-24T14:34:27.055Z,53.60
2018-12-24T14:36:56.423Z,53.80
2018-12-24T14:39:25.848Z,53.70
2018-12-24T14:41:55.281Z,53.60
2018-12-24T14:44:24.636Z,53.40
2018-12-24T14:46:54.019Z,53.60
2018-12-24T14:49:23.479Z,53.30
2018-12-24T14:51:52.848Z,53.20
2018-12-24T14:54:22.205Z,53.20
2018-12-24T14:56:51.576Z,53.10
2018-12-24T14:59:20.967Z,53.10
2018-12-24T15:01:50.371Z,53.20
2018-12-24T15:04:19.748Z,53.10
2018-12-24T15:06:49.124Z,52.90
2018-12-24T15:09:18.483Z,52.90
2018-12-24T15:11:47.873Z,52.80
2018-12-24T15:14:17.300Z,52.60
2018-12-24T15:16:46.700Z,52.50
2018-12-24T15:19:16.143Z,52.50
2018-12-24T15:21:45.565Z,52.40
2018-12-24T15:24:14.948Z,52.40
2018-12-24T15:26:44.403Z,52.40
2018-12-24T15:29:13.780Z,52.40
2018-12-24T15:31:43.128Z,52.30
2018-12-24T15:34:12.507Z,52.20
2018-12-24T15:36:41.897Z,52.10
2018-12-24T15:39:11.383Z,52.10
2018-12-24T15:41:40.743Z,52.00
2018-12-24T15:44:10.107Z,52.10
2018-12-24T15:46:42.804Z,52.10
2018-12-24T15:49:10.608Z,52.10
2018-12-24T15:51:39.987Z,52.10
2018-12-24T15:54:09.340Z,52.10
2018-12-24T15:56:38.727Z,52.20
2018-12-24T15:59:08.088Z,52.00
2018-12-24T16:01:37.555Z,52.00
2018-12-24T16:04:06.924Z,52.00
2018-12-24T16:06:36.275Z,52.00
2018-12-24T16:09:07.371Z,52.00
2018-12-24T16:11:36.747Z,52.00
2018-12-24T16:14:06.138Z,51.90
2018-12-24T16:16:35.496Z,51.90
2018-12-24T16:19:04.844Z,51.90
2018-12-24T16:21:34.199Z,51.80
2018-12-24T16:24:03.555Z,51.70
2018-12-24T16:26:32.924Z,51.60
2018-12-24T16:29:02.341Z,51.60
2018-12-24T16:31:31.711Z,51.50
2018-12-24T16:34:08.868Z,51.50
2018-12-24T16:36:38.220Z,51.50
2018-12-24T16:39:07.975Z,51.40
2018-12-24T16:41:37.331Z,51.30
2018-12-24T16:44:06.692Z,51.30
2018-12-24T16:46:36.058Z,51.30
2018-12-24T16:49:05.490Z,51.30
2018-12-24T16:51:34.943Z,51.40
2018-12-24T16:54:04.303Z,51.40
2018-12-24T16:56:33.703Z,51.20
2018-12-24T16:59:03.073Z,51.10
2018-12-24T17:01:32.448Z,51.10
2018-12-24T17:04:01.808Z,51.10
2018-12-24T17:06:31.172Z,51.00
2018-12-24T17:09:00.543Z,51.00
2018-12-24T17:11:29.956Z,51.00
2018-12-24T17:13:59.328Z,50.90
2018-12-24T17:16:28.716Z,50.90
2018-12-24T17:18:58.075Z,50.90
2018-12-24T17:21:27.457Z,50.90
2018-12-24T17:23:56.860Z,50.90
2018-12-24T17:26:26.288Z,50.80
2018-12-24T17:28:55.663Z,50.80
2018-12-24T17:31:25.020Z,50.90
2018-12-24T17:33:54.376Z,50.80
2018-12-24T17:36:23.789Z,50.70
2018-12-24T17:38:53.144Z,50.70
2018-12-24T17:41:22.508Z,50.70
2018-12-24T17:43:51.867Z,50.70
2018-12-24T17:46:21.300Z,50.70
2018-12-24T17:48:50.667Z,50.70
2018-12-24T17:51:20.028Z,50.80
2018-12-24T17:53:49.387Z,50.70
2018-12-24T17:56:18.756Z,50.70
2018-12-24T17:58:48.112Z,50.70
2018-12-24T18:01:17.476Z,50.70
2018-12-24T18:03:46.832Z,50.80
2018-12-24T18:06:16.188Z,50.70
2018-12-24T18:08:45.571Z,50.70
2018-12-24T18:11:14.934Z,50.70
2018-12-24T18:13:44.371Z,50.60
2018-12-24T18:16:13.736Z,50.50
2018-12-24T18:18:43.160Z,50.50
2018-12-24T18:21:12.523Z,50.60
2018-12-24T18:23:41.951Z,50.50
2018-12-24T18:26:11.324Z,50.50
2018-12-24T18:28:40.707Z,50.40
2018-12-24T18:31:10.134Z,50.50
2018-12-24T18:33:39.568Z,50.20
2018-12-24T18:36:08.923Z,50.30
2018-12-24T18:38:38.307Z,50.30
2018-12-24T18:41:07.760Z,50.20
2018-12-24T18:43:37.107Z,50.20
2018-12-24T18:46:06.463Z,50.20
2018-12-24T18:48:35.888Z,50.10
2018-12-24T18:51:05.264Z,49.90
2018-12-24T18:53:34.697Z,49.90
2018-12-24T18:56:04.129Z,49.90
2018-12-24T18:58:33.515Z,49.90
2018-12-24T19:01:02.939Z,49.90
2018-12-24T19:03:32.313Z,49.90
2018-12-24T19:06:01.676Z,49.80
2018-12-24T19:08:31.057Z,49.80
2018-12-24T19:11:00.433Z,49.70
2018-12-24T19:13:29.864Z,49.70
2018-12-24T19:15:59.211Z,49.70
2018-12-24T19:18:28.626Z,49.70
2018-12-24T19:20:58.069Z,49.70
2018-12-24T19:23:27.495Z,49.70
2018-12-24T19:25:56.841Z,49.70
2018-12-24T19:28:26.191Z,49.80
2018-12-24T19:30:55.553Z,50.80
2018-12-24T19:33:25.538Z,50.30
2018-12-24T19:35:54.908Z,50.10
2018-12-24T19:38:24.370Z,50.00
2018-12-24T19:40:53.805Z,49.90
2018-12-24T19:43:23.204Z,49.90
2018-12-24T19:45:52.656Z,50.00
2018-12-24T19:48:22.085Z,50.00
2018-12-24T19:50:51.565Z,50.00
2018-12-24T19:53:21.024Z,49.90
2018-12-24T19:55:50.403Z,49.90
2018-12-24T19:58:19.783Z,49.80
2018-12-24T20:00:49.229Z,49.80
2018-12-24T20:03:18.675Z,49.90
2018-12-24T20:05:48.032Z,49.80
2018-12-24T20:08:17.401Z,49.80
2018-12-24T20:10:46.778Z,49.70
2018-12-24T20:13:16.203Z,49.60
2018-12-24T20:15:45.552Z,49.70
2018-12-24T20:18:15.008Z,49.80
2018-12-24T20:20:44.360Z,49.70
2018-12-24T20:23:13.748Z,49.60
2018-12-24T20:25:43.168Z,49.60
2018-12-24T20:28:12.611Z,49.70
2018-12-24T20:30:41.977Z,49.80
2018-12-24T20:33:11.420Z,49.70
2018-12-24T20:35:40.971Z,49.70
2018-12-24T20:38:10.360Z,49.60
2018-12-24T20:40:39.779Z,49.70
2018-12-24T20:43:09.212Z,49.60
2018-12-24T20:45:38.649Z,49.50
2018-12-24T20:48:08.088Z,49.50
2018-12-24T20:50:37.460Z,49.40
2018-12-24T20:53:06.827Z,49.30
2018-12-24T20:55:36.191Z,49.30
2018-12-24T20:58:05.677Z,50.00
2018-12-24T21:00:35.100Z,49.40
2018-12-24T21:03:04.449Z,49.40
2018-12-24T21:05:33.812Z,49.30
2018-12-24T21:08:03.191Z,49.50
2018-12-24T21:10:32.564Z,49.50
2018-12-24T21:13:02.063Z,49.70
2018-12-24T21:15:31.496Z,49.60
2018-12-24T21:18:00.855Z,49.60
2018-12-24T21:20:30.227Z,49.70
2018-12-24T21:22:59.632Z,49.70
2018-12-24T21:25:29.051Z,49.40
2018-12-24T21:27:58.412Z,49.70
2018-12-24T21:30:27.872Z,49.90
2018-12-24T21:32:57.325Z,49.70
2018-12-24T21:35:26.687Z,49.70
2018-12-24T21:37:56.069Z,49.50
2018-12-24T21:40:25.526Z,49.50
2018-12-24T21:42:54.999Z,49.60
2018-12-24T21:45:24.408Z,49.50
2018-12-24T21:47:53.803Z,49.50
2018-12-24T21:50:23.272Z,49.60
2018-12-24T21:52:52.641Z,49.70
2018-12-24T21:55:22.003Z,49.50
2018-12-24T21:57:51.431Z,49.40
2018-12-24T22:00:20.861Z,49.40
2018-12-24T22:02:50.314Z,49.30
2018-12-24T22:05:19.768Z,49.30
2018-12-24T22:07:49.234Z,49.30
2018-12-24T22:10:18.675Z,49.30
2018-12-24T22:12:48.035Z,49.40
2018-12-24T22:15:17.419Z,49.30
2018-12-24T22:17:46.788Z,49.10
2018-12-24T22:20:16.212Z,49.60
2018-12-24T22:22:45.584Z,49.90
2018-12-24T22:25:14.940Z,49.70
2018-12-24T22:27:44.387Z,49.70
2018-12-24T22:30:13.754Z,50.00
2018-12-24T22:32:43.196Z,50.00
2018-12-24T22:35:12.574Z,50.30
2018-12-24T22:37:41.947Z,50.30
2018-12-24T22:40:11.319Z,50.40
2018-12-24T22:42:40.683Z,50.50
2018-12-24T22:45:10.057Z,51.10
2018-12-24T22:47:39.577Z,51.30
2018-12-24T22:50:08.955Z,50.90
2018-12-24T22:52:38.436Z,51.00
2018-12-24T22:55:07.863Z,51.10
2018-12-24T22:57:37.219Z,51.30
2018-12-24T23:00:09.830Z,51.30
2018-12-24T23:02:39.261Z,52.20
2018-12-24T23:05:08.696Z,51.50
2018-12-24T23:07:38.165Z,51.50
2018-12-24T23:10:07.555Z,51.50
2018-12-24T23:12:36.911Z,51.60
2018-12-24T23:15:07.027Z,51.40
2018-12-24T23:17:36.403Z,51.50
2018-12-24T23:20:05.840Z,51.40
2018-12-24T23:22:35.224Z,51.50
2018-12-24T23:25:04.660Z,51.30
2018-12-24T23:27:34.098Z,51.10
2018-12-24T23:30:03.537Z,51.10
2018-12-24T23:32:33.014Z,51.20
2018-12-24T23:35:02.467Z,51.20
2018-12-24T23:37:31.851Z,51.10
2018-12-24T23:40:01.250Z,51.10
2018-12-24T23:42:30.703Z,51.20
2018-12-24T23:45:00.080Z,51.30
2018-12-24T23:47:29.560Z,51.30
2018-12-24T23:49:58.916Z,51.30
2018-12-24T23:52:28.365Z,51.70
2018-12-24T23:54:57.779Z,51.20
2018-12-24T23:57:27.164Z,51.10
2018-12-24T23:59:56.545Z,51.00
